Huntsville Municipal Airport
KUTS : rendu visible

Aérodrome :











RETROUVEZ-NOUS SUR...

 
LOGIN :

S'inscrire | Disclaimer

   EN    FR    IT 

 









Légende :    VFR   VFR Marginal   IFR   IFR Intensif   IFR Très Intensif
Visi : 
Plafond : 
>= 8 km
>= 3000ft
5 à 8 km
1000 à 3000 ft
1500m à 5 km
500 à 1000 ft
800 à 1500m
200 à 500 ft
< 800m
< 200 ft
Symboles :   Orages  Brouillard  Fortes neiges  Fortes précipitations  Vent > 20 kt






- Altitude de l'aérodrome : 363 ft


KUTS - Huntsville Municipal

DERNIER METAR :
  • 220439Z AUTO VRB04KT 10SM SCT015 BKN024 22/19 A2997 RMK AO2 T02220189

METARs EXPIRÉS :
  • 220413Z AUTO VRB03KT 10SM BKN014 OVC022 22/19 A2997 RMK AO2 T02170194
  • 220353Z AUTO VRB04KT 10SM BKN016 BKN022 OVC029 22/19 A2998 RMK AO2 SLP146 T02170194
  • 220308Z AUTO VRB03KT 10SM BKN016 22/19 A2997 RMK AO2 T02170194
  • 220253Z AUTO VRB05KT 10SM FEW016 FEW036 SCT045 22/19 A2997 RMK AO2 SLP145 T02220194 50009
  • 220153Z AUTO VRB05KT 10SM FEW050 23/19 A2998 RMK AO2 SLP148 T02280189

TAF KUTS
Valide du 22 à 00h jusqu'au 23 à 00h UTC


212326Z 2200/2224 14005KT P6SM VCSH BKN060
FM220700 17005KT P6SM VCSH SCT015 OVC030
FM220900 VRB04KT P6SM VCTS FEW008 OVC015CB
FM221500 25006KT 5SM -SHRA VCTS SCT008 OVC015CB
FM221800 31009G19KT P6SM VCSH OVC015



MET'MAP, la Météo Aéronautique d'un coup d'oeil ! - Copyright ORBIFLY Décembre 2007 - Disclaimer

ORBIFLY MET'MAP TEAM :

Programmation & Développement : Alexandra Zaïnal
Conception & Développement : Baudouin d'Aumeries
Co-Programmation & Développement : Marc-Olivier Méhu
Soutien technique & logistique : Manuel Goepfert

Contact : metmap@orbifly.com




SOURCES & CREDITS :

   NOAA       Earth
Advisory